createdAt,value
2023-03-18T00:00:52.769Z,2.70
2023-03-18T00:03:57.070Z,3.03
2023-03-18T00:07:03.155Z,2.75
2023-03-18T00:10:09.481Z,2.47
2023-03-18T00:13:15.316Z,2.72
2023-03-18T00:16:21.434Z,2.90
2023-03-18T00:19:27.413Z,2.60
2023-03-18T00:22:31.510Z,2.70
2023-03-18T00:25:38.293Z,2.78
2023-03-18T00:28:42.320Z,3.80
2023-03-18T00:31:50.796Z,2.63
2023-03-18T00:34:54.824Z,2.70
2023-03-18T00:38:03.270Z,2.63
2023-03-18T00:41:15.081Z,2.55
2023-03-18T00:44:21.864Z,2.67
2023-03-18T00:47:27.911Z,3.17
2023-03-18T00:50:33.930Z,3.00
2023-03-18T00:53:38.222Z,2.92
2023-03-18T00:56:44.372Z,3.15
2023-03-18T00:59:48.342Z,3.40
2023-03-18T01:02:56.382Z,3.58
2023-03-18T01:06:01.914Z,3.58
2023-03-18T01:09:11.217Z,4.18
2023-03-18T01:12:17.598Z,3.60
2023-03-18T01:15:23.895Z,3.70
2023-03-18T01:18:29.734Z,3.88
2023-03-18T01:21:35.754Z,3.88
2023-03-18T01:24:40.235Z,3.80
2023-03-18T01:27:46.573Z,3.83
2023-03-18T01:30:51.128Z,3.05
2023-03-18T01:34:02.600Z,3.75
2023-03-18T01:37:16.025Z,4.10
2023-03-18T01:40:25.885Z,3.45
2023-03-18T01:43:33.829Z,3.47
2023-03-18T01:46:42.301Z,3.40
2023-03-18T01:49:51.715Z,3.70
2023-03-18T01:53:00.981Z,3.28
2023-03-18T01:56:06.216Z,3.72
2023-03-18T01:59:13.203Z,3.42
2023-03-18T02:02:18.925Z,4.20
2023-03-18T02:05:30.014Z,3.60
2023-03-18T02:08:34.231Z,3.40
2023-03-18T02:11:45.217Z,3.35
2023-03-18T02:14:52.507Z,5.32
2023-03-18T02:18:05.255Z,4.18
2023-03-18T02:21:27.570Z,3.80
2023-03-18T02:24:40.363Z,3.75
2023-03-18T02:27:58.656Z,4.07
2023-03-18T02:31:13.136Z,3.88
2023-03-18T02:34:19.471Z,3.67
2023-03-18T02:37:25.474Z,4.85
2023-03-18T02:40:32.564Z,4.20
2023-03-18T02:43:42.017Z,4.30
2023-03-18T02:46:54.867Z,4.22
2023-03-18T02:50:02.384Z,4.30
2023-03-18T02:53:07.279Z,4.07
2023-03-18T02:56:13.773Z,4.45
2023-03-18T02:59:22.802Z,4.78
2023-03-18T03:02:29.009Z,4.82
2023-03-18T03:05:34.639Z,5.20
2023-03-18T03:08:41.301Z,4.13
2023-03-18T03:11:47.593Z,4.97
2023-03-18T03:15:01.379Z,4.90
2023-03-18T03:18:09.585Z,4.80
2023-03-18T03:21:17.322Z,5.60
2023-03-18T03:24:21.716Z,5.50
2023-03-18T03:27:27.871Z,4.78
2023-03-18T03:30:34.129Z,5.07
2023-03-18T03:33:43.094Z,5.75
2023-03-18T03:36:47.034Z,5.15
2023-03-18T03:39:53.117Z,5.30
2023-03-18T03:42:57.150Z,5.57
2023-03-18T03:46:05.512Z,5.47
2023-03-18T03:49:09.691Z,5.50
2023-03-18T03:52:17.652Z,5.03
2023-03-18T03:55:23.915Z,5.07
2023-03-18T03:58:31.328Z,5.13
2023-03-18T04:04:43.088Z,5.53
2023-03-18T04:07:59.295Z,5.72
2023-03-18T04:11:16.616Z,4.68
2023-03-18T04:14:20.814Z,6.90
2023-03-18T04:17:29.582Z,5.57
2023-03-18T04:20:33.751Z,4.93
2023-03-18T04:23:42.232Z,5.18
2023-03-18T04:26:46.464Z,5.10
2023-03-18T04:29:52.637Z,5.32
2023-03-18T04:33:01.385Z,5.88
2023-03-18T04:36:09.302Z,5.43
2023-03-18T04:39:14.627Z,5.20
2023-03-18T04:42:21.270Z,6.03
2023-03-18T04:45:25.442Z,5.90
2023-03-18T04:48:36.868Z,6.22
2023-03-18T04:51:42.394Z,6.25
2023-03-18T04:54:58.102Z,6.03
2023-03-18T04:58:02.680Z,6.35
2023-03-18T05:01:15.150Z,5.50
2023-03-18T05:04:21.906Z,5.90
2023-03-18T05:07:31.599Z,6.00
2023-03-18T05:10:41.495Z,6.38
2023-03-18T05:13:51.503Z,5.47
2023-03-18T05:16:57.089Z,5.55
2023-03-18T05:20:06.304Z,6.80
2023-03-18T05:23:11.098Z,5.90
2023-03-18T05:26:24.081Z,7.13
2023-03-18T05:29:28.331Z,6.28
2023-03-18T05:32:53.549Z,7.25
2023-03-18T05:36:06.061Z,6.75
2023-03-18T05:39:18.022Z,7.28
2023-03-18T05:45:28.061Z,6.82
2023-03-18T05:48:33.601Z,7.97
2023-03-18T05:51:46.123Z,8.50
2023-03-18T05:54:55.943Z,8.13
2023-03-18T05:58:07.002Z,8.55
2023-03-18T06:01:13.511Z,8.35
2023-03-18T06:04:20.250Z,9.13
2023-03-18T06:07:27.455Z,9.32
2023-03-18T06:10:33.564Z,9.95
2023-03-18T06:13:38.285Z,10.13
2023-03-18T06:16:45.028Z,10.88
2023-03-18T06:19:50.329Z,10.18
2023-03-18T06:22:59.304Z,10.18
2023-03-18T06:26:04.935Z,10.85
2023-03-18T06:29:15.940Z,10.43
2023-03-18T06:32:21.164Z,10.63
2023-03-18T06:35:28.404Z,10.32
2023-03-18T06:38:34.666Z,11.65
2023-03-18T06:41:41.881Z,10.27
2023-03-18T06:45:07.737Z,11.48
2023-03-18T06:48:24.698Z,10.65
2023-03-18T06:51:29.456Z,11.02
2023-03-18T06:54:38.642Z,11.32
2023-03-18T06:57:42.720Z,13.32
2023-03-18T07:00:50.403Z,12.15
2023-03-18T07:04:02.887Z,11.43
2023-03-18T07:07:10.225Z,11.63
2023-03-18T07:10:22.046Z,12.30
2023-03-18T07:16:32.892Z,10.82
2023-03-18T07:19:39.192Z,12.38
2023-03-18T07:22:43.555Z,11.57
2023-03-18T07:25:52.040Z,12.02
2023-03-18T07:28:56.906Z,10.13
2023-03-18T07:32:03.997Z,10.80
2023-03-18T07:35:10.247Z,12.07
2023-03-18T07:38:17.566Z,11.57
2023-03-18T07:41:23.384Z,11.20
2023-03-18T07:44:29.728Z,11.63
2023-03-18T07:47:33.862Z,11.73
2023-03-18T07:50:40.331Z,12.93
2023-03-18T07:53:44.893Z,11.25
2023-03-18T07:56:53.672Z,13.07
2023-03-18T07:59:58.551Z,11.98
2023-03-18T08:03:05.424Z,12.32
2023-03-18T08:06:10.684Z,12.95
2023-03-18T08:09:16.866Z,14.13
2023-03-18T08:12:23.063Z,13.32
2023-03-18T08:15:29.023Z,14.52
2023-03-18T08:21:38.888Z,12.25
2023-03-18T08:24:45.114Z,12.38
2023-03-18T08:27:53.611Z,13.15
2023-03-18T08:30:58.606Z,14.52
2023-03-18T08:34:04.971Z,14.35
2023-03-18T08:37:09.464Z,14.00
2023-03-18T08:40:15.479Z,13.65
2023-03-18T08:43:22.663Z,13.93
2023-03-18T08:46:28.755Z,14.02
2023-03-18T08:49:33.048Z,14.80
2023-03-18T08:52:40.564Z,15.13
2023-03-18T08:55:44.457Z,15.75
2023-03-18T08:58:52.809Z,12.93
2023-03-18T09:01:57.200Z,12.48
2023-03-18T09:05:03.112Z,12.60
2023-03-18T09:08:07.773Z,12.70
2023-03-18T09:11:14.117Z,13.20
2023-03-18T09:14:19.972Z,12.80
2023-03-18T09:17:43.816Z,15.07
2023-03-18T09:20:50.787Z,12.57
2023-03-18T09:23:57.502Z,12.75
2023-03-18T09:27:01.388Z,13.38
2023-03-18T09:30:11.751Z,12.80
2023-03-18T09:33:15.902Z,14.15
2023-03-18T09:36:21.942Z,12.80
2023-03-18T09:39:26.552Z,12.90
2023-03-18T09:42:51.368Z,13.18
2023-03-18T09:46:07.037Z,12.30
2023-03-18T09:49:54.931Z,11.65
2023-03-18T09:53:13.348Z,11.48
2023-03-18T09:56:24.556Z,11.85
2023-03-18T09:59:37.704Z,11.38
2023-03-18T10:02:49.803Z,10.88
2023-03-18T10:05:58.242Z,10.35
2023-03-18T10:09:11.226Z,10.85
2023-03-18T10:12:19.984Z,10.18
2023-03-18T10:15:33.517Z,11.30
2023-03-18T10:18:42.715Z,9.73
2023-03-18T10:21:54.015Z,11.65
2023-03-18T10:25:06.937Z,10.73
2023-03-18T10:28:38.552Z,11.73
2023-03-18T10:31:56.502Z,10.07
2023-03-18T10:35:20.104Z,11.80
2023-03-18T10:38:27.441Z,10.85
2023-03-18T10:41:37.108Z,11.57
2023-03-18T10:44:45.007Z,8.15
2023-03-18T10:48:04.878Z,7.75
2023-03-18T10:51:17.916Z,9.48
2023-03-18T10:54:28.726Z,9.95
2023-03-18T10:57:32.896Z,8.02
2023-03-18T11:00:39.041Z,7.68
2023-03-18T11:03:46.046Z,8.05
2023-03-18T11:06:57.520Z,8.38
2023-03-18T11:10:15.077Z,6.85
2023-03-18T11:13:23.506Z,8.10
2023-03-18T11:16:38.421Z,6.50
2023-03-18T11:19:49.186Z,5.95
2023-03-18T11:22:57.000Z,6.90
2023-03-18T11:26:03.946Z,5.90
2023-03-18T11:29:14.645Z,6.03
2023-03-18T11:32:27.589Z,6.60
2023-03-18T11:35:39.272Z,4.90
2023-03-18T11:38:59.076Z,4.57
2023-03-18T11:42:03.426Z,4.25
2023-03-18T11:45:29.239Z,5.30
2023-03-18T11:48:37.250Z,4.65
2023-03-18T11:51:48.405Z,4.22
2023-03-18T11:55:13.397Z,4.97
2023-03-18T11:58:54.865Z,5.22
2023-03-18T12:02:12.998Z,4.25
2023-03-18T12:05:46.321Z,3.95
2023-03-18T12:09:02.722Z,3.85
2023-03-18T12:12:25.991Z,3.95
2023-03-18T12:15:42.131Z,3.80
2023-03-18T12:18:58.704Z,3.15
2023-03-18T12:22:27.846Z,3.85
2023-03-18T12:25:53.856Z,3.28
2023-03-18T12:29:20.020Z,3.13
2023-03-18T12:32:31.328Z,3.35
2023-03-18T12:35:47.948Z,2.60
2023-03-18T12:39:30.982Z,2.50
2023-03-18T12:42:47.488Z,2.13
2023-03-18T12:46:03.249Z,2.22
2023-03-18T12:49:14.054Z,2.70
2023-03-18T12:52:29.527Z,2.03
2023-03-18T12:55:37.849Z,2.33
2023-03-18T12:58:48.180Z,2.30
2023-03-18T13:02:14.749Z,2.65
2023-03-18T13:05:29.632Z,3.20
2023-03-18T13:08:59.284Z,2.90
2023-03-18T13:12:13.055Z,2.75
2023-03-18T13:15:28.760Z,2.45
2023-03-18T13:18:39.986Z,2.80
2023-03-18T13:21:51.002Z,2.53
2023-03-18T13:25:05.388Z,2.70
2023-03-18T13:28:43.266Z,3.00
2023-03-18T13:31:55.955Z,2.72
2023-03-18T13:35:27.738Z,2.60
2023-03-18T13:38:48.060Z,2.72
2023-03-18T13:42:17.978Z,2.78
2023-03-18T13:45:28.845Z,2.65
2023-03-18T13:48:36.383Z,3.25
2023-03-18T13:51:52.459Z,2.30
2023-03-18T13:55:03.627Z,2.28
2023-03-18T13:58:22.059Z,2.28
2023-03-18T14:01:34.900Z,2.35
2023-03-18T14:04:49.392Z,1.70
2023-03-18T14:07:57.317Z,1.70
2023-03-18T14:11:49.726Z,1.52
2023-03-18T14:15:05.314Z,1.77
2023-03-18T14:18:26.004Z,1.42
2023-03-18T14:21:35.230Z,1.33
2023-03-18T14:24:43.335Z,1.67
2023-03-18T14:27:52.929Z,1.30
2023-03-18T14:31:13.452Z,1.42
2023-03-18T14:34:31.447Z,2.10
2023-03-18T14:37:37.798Z,1.60
2023-03-18T14:40:50.921Z,2.00
2023-03-18T14:44:04.878Z,1.95
2023-03-18T14:47:31.971Z,1.80
2023-03-18T14:50:43.803Z,1.27
2023-03-18T14:53:54.186Z,1.45
2023-03-18T14:57:05.642Z,1.83
2023-03-18T15:00:16.594Z,1.63
2023-03-18T15:03:24.234Z,2.00
2023-03-18T15:06:31.826Z,1.83
2023-03-18T15:09:37.704Z,1.42
2023-03-18T15:12:46.497Z,1.88
2023-03-18T15:15:54.162Z,1.40
2023-03-18T15:19:01.018Z,1.50
2023-03-18T15:22:08.096Z,1.42
2023-03-18T15:25:20.474Z,1.95
2023-03-18T15:28:31.242Z,2.17
2023-03-18T15:31:41.990Z,1.33
2023-03-18T15:34:47.664Z,2.45
2023-03-18T15:38:07.205Z,2.10
2023-03-18T15:41:13.363Z,2.10
2023-03-18T15:44:28.105Z,1.30
2023-03-18T15:47:33.825Z,1.13
2023-03-18T15:50:52.608Z,1.10
2023-03-18T15:53:58.518Z,1.52
2023-03-18T15:57:12.896Z,1.67
2023-03-18T16:00:20.064Z,1.20
2023-03-18T16:03:30.765Z,1.63
2023-03-18T16:06:36.224Z,1.55
2023-03-18T16:09:42.357Z,1.40
2023-03-18T16:12:47.653Z,1.50
2023-03-18T16:15:56.189Z,1.65
2023-03-18T16:19:00.862Z,1.33
2023-03-18T16:22:06.871Z,1.50
2023-03-18T16:28:21.501Z,1.70
2023-03-18T16:31:27.430Z,1.40
2023-03-18T16:34:34.422Z,1.80
2023-03-18T16:37:38.530Z,1.50
2023-03-18T16:40:46.122Z,2.10
2023-03-18T16:43:50.614Z,1.92
2023-03-18T16:46:59.412Z,2.05
2023-03-18T16:50:04.694Z,1.80
2023-03-18T16:53:35.052Z,2.03
2023-03-18T16:56:51.781Z,2.10
2023-03-18T17:00:00.275Z,2.13
2023-03-18T17:03:06.471Z,1.95
2023-03-18T17:06:14.467Z,2.35
2023-03-18T17:09:18.628Z,2.40
2023-03-18T17:12:25.895Z,2.08
2023-03-18T17:15:32.708Z,2.17
2023-03-18T17:18:43.056Z,2.28
2023-03-18T17:21:47.221Z,2.13
2023-03-18T17:24:53.286Z,1.90
2023-03-18T17:27:58.855Z,2.47
2023-03-18T17:31:06.074Z,3.30
2023-03-18T17:34:15.560Z,8.02
2023-03-18T17:37:23.146Z,6.18
2023-03-18T17:40:31.095Z,4.60
2023-03-18T17:43:38.223Z,4.45
2023-03-18T17:46:42.396Z,2.88
2023-03-18T17:49:50.308Z,2.92
2023-03-18T17:52:54.560Z,2.65
2023-03-18T17:56:01.200Z,2.97
2023-03-18T17:59:13.981Z,2.28
2023-03-18T18:02:20.717Z,2.70
2023-03-18T18:05:26.961Z,2.28
2023-03-18T18:08:33.625Z,3.30
2023-03-18T18:11:43.509Z,2.40
2023-03-18T18:14:49.777Z,2.65
2023-03-18T18:17:55.070Z,2.30
2023-03-18T18:21:04.939Z,2.00
2023-03-18T18:24:16.507Z,2.00
2023-03-18T18:27:23.647Z,2.78
2023-03-18T18:30:27.960Z,3.35
2023-03-18T18:33:35.310Z,3.28
2023-03-18T18:36:42.197Z,3.55
2023-03-18T18:39:48.439Z,3.58
2023-03-18T18:42:52.777Z,3.35
2023-03-18T18:45:59.960Z,4.25
2023-03-18T18:49:04.077Z,4.97
2023-03-18T18:52:15.211Z,5.03
2023-03-18T18:55:19.612Z,4.90
2023-03-18T18:58:30.491Z,4.82
2023-03-18T19:01:34.577Z,5.72
2023-03-18T19:04:40.873Z,6.50
2023-03-18T19:07:47.658Z,6.50
2023-03-18T19:10:55.779Z,6.10
2023-03-18T19:14:17.834Z,6.97
2023-03-18T19:17:25.349Z,6.25
2023-03-18T19:20:33.605Z,5.75
2023-03-18T19:23:42.048Z,5.95
2023-03-18T19:26:46.606Z,6.80
2023-03-18T19:29:54.447Z,6.45
2023-03-18T19:33:01.767Z,7.22
2023-03-18T19:36:10.534Z,6.18
2023-03-18T19:39:18.208Z,7.15
2023-03-18T19:42:24.366Z,6.47
2023-03-18T19:45:28.540Z,7.40
2023-03-18T19:48:34.557Z,7.22
2023-03-18T19:51:38.869Z,7.95
2023-03-18T19:54:47.526Z,8.25
2023-03-18T19:57:59.270Z,8.32
2023-03-18T20:01:05.333Z,8.55
2023-03-18T20:07:22.673Z,7.15
2023-03-18T20:10:29.360Z,8.38
2023-03-18T20:13:36.016Z,8.13
2023-03-18T20:16:40.099Z,8.40
2023-03-18T20:19:46.489Z,8.07
2023-03-18T20:22:55.529Z,8.40
2023-03-18T20:26:03.991Z,8.45
2023-03-18T20:29:17.730Z,8.27
2023-03-18T20:32:23.738Z,8.70
2023-03-18T20:35:30.333Z,8.07
2023-03-18T20:38:38.464Z,8.93
2023-03-18T20:41:44.476Z,8.75
2023-03-18T20:44:50.847Z,12.25
2023-03-18T20:47:56.053Z,13.98
2023-03-18T20:51:02.886Z,12.77
2023-03-18T20:54:19.030Z,14.38
2023-03-18T20:57:28.163Z,17.98
2023-03-18T21:00:34.020Z,18.20
2023-03-18T21:03:40.276Z,19.77
2023-03-18T21:06:44.476Z,21.80
2023-03-18T21:09:50.949Z,23.38
2023-03-18T21:12:56.874Z,28.67
2023-03-18T21:16:03.940Z,28.00
2023-03-18T21:19:08.111Z,27.63
2023-03-18T21:22:17.923Z,25.48
2023-03-18T21:25:23.786Z,27.20
2023-03-18T21:28:32.688Z,24.80
2023-03-18T21:31:36.981Z,20.50
2023-03-18T21:34:43.451Z,15.90
2023-03-18T21:37:47.282Z,15.60
2023-03-18T21:40:54.044Z,13.90
2023-03-18T21:44:00.227Z,12.85
2023-03-18T21:47:06.796Z,13.30
2023-03-18T21:50:20.326Z,13.02
2023-03-18T21:53:26.924Z,12.68
2023-03-18T21:56:31.540Z,13.48
2023-03-18T21:59:39.892Z,13.82
2023-03-18T22:02:44.383Z,13.98
2023-03-18T22:05:52.154Z,14.23
2023-03-18T22:08:56.661Z,15.68
2023-03-18T22:12:02.589Z,13.43
2023-03-18T22:18:34.349Z,12.00
2023-03-18T22:21:38.547Z,12.65
2023-03-18T22:24:44.489Z,12.38
2023-03-18T22:30:57.010Z,11.02
2023-03-18T22:34:01.012Z,10.68
2023-03-18T22:37:07.225Z,10.43
2023-03-18T22:43:34.120Z,9.63
2023-03-18T22:46:40.276Z,10.55
2023-03-18T22:49:46.412Z,10.70
2023-03-18T22:52:51.504Z,11.02
2023-03-18T22:55:58.147Z,10.00
2023-03-18T22:59:03.940Z,11.18
2023-03-18T23:02:17.067Z,10.15
2023-03-18T23:05:23.578Z,10.55
2023-03-18T23:08:30.730Z,10.55
2023-03-18T23:11:36.628Z,10.20
2023-03-18T23:14:42.519Z,10.32
2023-03-18T23:17:50.960Z,11.13
2023-03-18T23:20:55.037Z,10.30
2023-03-18T23:24:01.098Z,10.18
2023-03-18T23:27:05.276Z,10.18
2023-03-18T23:30:13.658Z,10.82
2023-03-18T23:33:20.518Z,11.60
2023-03-18T23:36:26.707Z,11.23
2023-03-18T23:39:30.651Z,11.30
2023-03-18T23:42:36.857Z,11.48
2023-03-18T23:45:40.774Z,11.00
2023-03-18T23:48:49.028Z,10.95
2023-03-18T23:51:52.857Z,11.32
2023-03-18T23:54:59.203Z,11.35
2023-03-18T23:58:03.694Z,11.70
